Time;durP1;ratioP1;P1;durP2;ratioP2;P2;SDS_P1;SDS_P2;PMS_P1;PMS_P2;Temp;Humidity;BMP_temperature;BMP_pressure;BME280_temperature;BME280_humidity;BME280_pressure;Samples;Min_cycle;Max_cycle;Signal;HPM_P1;HPM_P2
2023/01/01 00:00:00;;;;;;;44.00;34.42;;;18.70;54.40;;;;;;5061082;28;20190;-78
2023/01/01 00:02:27;;;;;;;49.13;37.35;;;18.60;54.20;;;;;;5062857;28;20262;-78
2023/01/01 00:04:54;;;;;;;56.38;46.25;;;18.60;54.30;;;;;;5061502;28;20238;-78
2023/01/01 00:07:21;;;;;;;59.40;47.05;;;18.60;54.40;;;;;;5058633;28;20218;-79
2023/01/01 00:12:33;;;;;;;64.82;48.83;;;18.60;54.60;;;;;;5063397;28;20190;-79
2023/01/01 00:15:02;;;;;;;58.92;44.85;;;18.60;54.40;;;;;;5062696;28;20203;-79
2023/01/01 00:17:29;;;;;;;48.25;39.90;;;18.60;54.40;;;;;;5058458;28;20220;-79
2023/01/01 00:19:56;;;;;;;48.38;38.25;;;18.60;54.40;;;;;;5057977;28;20285;-79
2023/01/01 00:22:25;;;;;;;45.42;38.15;;;18.50;54.50;;;;;;5057218;28;20705;-79
2023/01/01 00:24:51;;;;;;;42.50;37.60;;;18.60;54.50;;;;;;5052785;28;20199;-79
2023/01/01 00:27:18;;;;;;;46.95;36.67;;;18.60;54.60;;;;;;5042830;28;20709;-78
2023/01/01 00:29:45;;;;;;;43.75;35.95;;;18.60;54.70;;;;;;5037063;28;20658;-78
2023/01/01 00:32:14;;;;;;;46.60;38.70;;;18.60;54.60;;;;;;5044271;28;20233;-79
2023/01/01 00:34:40;;;;;;;47.60;39.88;;;18.50;54.40;;;;;;5042082;28;20234;-79
2023/01/01 00:37:07;;;;;;;46.35;38.78;;;18.50;54.60;;;;;;5038784;28;20317;-78
2023/01/01 00:39:35;;;;;;;47.80;40.35;;;18.60;54.60;;;;;;5053138;28;20245;-78
2023/01/01 00:42:01;;;;;;;46.88;37.80;;;18.50;54.40;;;;;;5035534;28;20256;-78
2023/01/01 00:44:28;;;;;;;45.95;38.15;;;18.50;54.40;;;;;;5035885;28;20199;-78
2023/01/01 00:46:55;;;;;;;46.78;35.85;;;18.50;54.40;;;;;;5035516;28;20246;-78
2023/01/01 00:49:24;;;;;;;40.08;35.60;;;18.40;54.40;;;;;;5037824;28;20203;-78
2023/01/01 00:51:50;;;;;;;41.13;34.38;;;18.40;54.40;;;;;;5040508;28;20191;-78
2023/01/01 00:54:17;;;;;;;39.53;32.60;;;18.40;54.40;;;;;;5040133;28;20566;-78
2023/01/01 00:56:45;;;;;;;38.30;32.58;;;18.40;54.60;;;;;;5039290;28;20215;-79
2023/01/01 00:59:12;;;;;;;40.30;34.22;;;18.30;54.50;;;;;;5040100;28;20203;-79
2023/01/01 01:01:39;;;;;;;37.90;33.15;;;18.30;54.50;;;;;;5039260;28;20308;-79
2023/01/01 01:04:08;;;;;;;36.95;32.20;;;18.30;54.60;;;;;;5038840;28;20199;-79
2023/01/01 01:06:36;;;;;;;37.05;32.17;;;18.20;54.60;;;;;;5039659;28;20211;-79
2023/01/01 01:09:05;;;;;;;38.28;32.13;;;18.20;54.60;;;;;;5039028;28;20651;-78
2023/01/01 01:11:33;;;;;;;38.55;33.10;;;18.20;54.60;;;;;;5039144;28;20647;-79
2023/01/01 01:14:01;;;;;;;39.80;34.30;;;18.20;54.60;;;;;;5038952;28;20200;-77
2023/01/01 01:16:29;;;;;;;38.63;33.38;;;18.20;54.60;;;;;;5038756;28;20579;-79
2023/01/01 01:18:58;;;;;;;37.80;33.67;;;18.20;54.60;;;;;;5039444;28;20635;-78
2023/01/01 01:21:27;;;;;;;38.15;33.53;;;18.10;54.50;;;;;;5056537;28;20203;-76
2023/01/01 01:23:57;;;;;;;36.35;31.35;;;18.10;54.50;;;;;;5038684;28;20573;-76
2023/01/01 01:26:25;;;;;;;35.53;30.98;;;18.10;54.60;;;;;;5038475;28;20223;-76
2023/01/01 01:28:52;;;;;;;35.53;30.27;;;18.10;54.60;;;;;;5038518;28;20199;-76
2023/01/01 01:31:20;;;;;;;35.10;31.27;;;18.10;54.60;;;;;;5039671;28;20286;-76
2023/01/01 01:33:48;;;;;;;34.22;30.40;;;18.00;54.40;;;;;;5040288;28;20280;-76
2023/01/01 01:36:16;;;;;;;34.80;29.50;;;18.00;54.40;;;;;;5039701;28;20202;-77
2023/01/01 01:38:43;;;;;;;33.92;30.05;;;18.00;54.50;;;;;;5039174;28;20207;-77
2023/01/01 01:41:11;;;;;;;32.50;28.42;;;18.00;54.50;;;;;;5039822;28;20200;-77
2023/01/01 01:43:47;;;;;;;34.47;29.02;;;18.00;54.50;;;;;;5039287;28;20516;-77
2023/01/01 01:46:15;;;;;;;30.92;27.63;;;18.00;54.60;;;;;;5039501;28;20647;-77
2023/01/01 01:48:43;;;;;;;32.90;28.45;;;18.00;54.50;;;;;;5039380;28;20682;-77
2023/01/01 01:51:10;;;;;;;30.13;26.45;;;17.90;54.50;;;;;;5056191;28;20199;-77
2023/01/01 01:53:37;;;;;;;29.10;25.08;;;17.90;54.40;;;;;;5056902;28;20659;-77
2023/01/01 01:56:07;;;;;;;28.42;25.30;;;17.90;54.40;;;;;;5039082;28;20199;-78
2023/01/01 01:58:35;;;;;;;30.58;26.23;;;17.90;54.50;;;;;;5038994;28;20199;-77
2023/01/01 02:01:02;;;;;;;29.42;25.40;;;17.90;54.50;;;;;;5037624;28;20667;-76
2023/01/01 02:03:32;;;;;;;28.38;24.70;;;17.90;54.50;;;;;;5038788;28;20243;-77
2023/01/01 02:06:00;;;;;;;27.73;24.88;;;17.80;54.40;;;;;;5038910;28;20191;-77
2023/01/01 02:08:27;;;;;;;27.98;24.13;;;17.90;54.50;;;;;;5038429;28;20219;-77
2023/01/01 02:10:54;;;;;;;27.85;25.00;;;17.90;54.50;;;;;;5038559;28;20195;-77
2023/01/01 02:13:21;;;;;;;28.10;24.60;;;17.80;54.50;;;;;;5038314;28;20202;-76
2023/01/01 02:15:52;;;;;;;27.77;24.77;;;17.80;54.50;;;;;;5037810;28;20200;-76
2023/01/01 02:18:21;;;;;;;25.50;22.73;;;17.80;54.50;;;;;;5037420;28;20223;-76
2023/01/01 02:20:50;;;;;;;27.45;23.77;;;17.80;54.50;;;;;;5054288;28;20272;-76
2023/01/01 02:23:47;;;;;;;28.40;23.98;;;17.80;54.50;;;;;;5038071;28;20215;-76
2023/01/01 02:26:38;;;;;;;25.90;22.85;;;17.70;54.40;;;;;;5038465;28;20638;-77
2023/01/01 02:29:11;;;;;;;27.05;22.67;;;17.70;54.50;;;;;;5038536;28;20241;-76
2023/01/01 02:31:42;;;;;;;25.85;23.00;;;17.70;54.50;;;;;;5038501;28;20203;-76
2023/01/01 02:34:10;;;;;;;26.50;23.58;;;17.70;54.50;;;;;;5038935;28;20191;-76
2023/01/01 02:36:38;;;;;;;24.75;21.35;;;17.70;54.50;;;;;;5038324;28;20215;-76
2023/01/01 02:39:05;;;;;;;24.77;22.17;;;17.70;54.50;;;;;;5038253;28;20221;-76
2023/01/01 02:41:34;;;;;;;25.42;22.70;;;17.70;54.60;;;;;;5038350;28;20591;-76
2023/01/01 02:44:01;;;;;;;23.67;21.27;;;17.70;54.60;;;;;;5037365;28;20222;-76
2023/01/01 02:46:32;;;;;;;24.98;22.05;;;17.60;54.50;;;;;;5037336;28;20233;-75
2023/01/01 02:48:59;;;;;;;24.88;22.23;;;17.60;54.50;;;;;;5037268;28;20210;-75
2023/01/01 02:51:30;;;;;;;25.80;22.95;;;17.60;54.60;;;;;;5037236;28;20195;-75
2023/01/01 02:54:01;;;;;;;24.13;21.45;;;17.60;54.80;;;;;;5037154;28;20196;-74
2023/01/01 02:56:34;;;;;;;23.55;21.00;;;17.60;54.80;;;;;;5036966;28;20302;-75
2023/01/01 03:01:55;;;;;;;25.75;21.42;;;17.60;54.80;;;;;;5036875;28;20192;-75
2023/01/01 03:04:24;;;;;;;23.58;20.60;;;17.60;54.70;;;;;;5037078;28;20196;-75
2023/01/01 03:06:53;;;;;;;23.50;20.88;;;17.50;54.70;;;;;;5037089;28;20230;-75
2023/01/01 03:09:23;;;;;;;23.25;20.35;;;17.50;54.70;;;;;;5037191;28;20200;-75
2023/01/01 03:11:56;;;;;;;22.65;20.08;;;17.50;54.70;;;;;;5036770;28;20196;-75
2023/01/01 03:14:25;;;;;;;22.50;20.13;;;17.50;54.70;;;;;;5037195;28;20191;-75
2023/01/01 03:16:55;;;;;;;23.38;20.15;;;17.60;54.80;;;;;;5037056;28;20317;-75
2023/01/01 03:19:23;;;;;;;22.50;20.20;;;17.50;54.70;;;;;;5037105;28;20290;-75
2023/01/01 03:21:51;;;;;;;22.58;20.25;;;17.50;54.70;;;;;;5036801;28;20191;-75
2023/01/01 03:24:21;;;;;;;22.27;19.92;;;17.50;54.70;;;;;;5054556;28;20219;-75
2023/01/01 03:26:50;;;;;;;22.38;20.08;;;17.50;54.70;;;;;;5036611;28;20272;-76
2023/01/01 03:29:16;;;;;;;22.08;19.88;;;17.50;54.60;;;;;;5054527;28;20195;-75
2023/01/01 03:31:44;;;;;;;23.13;20.00;;;17.50;54.70;;;;;;5036905;28;20299;-75
2023/01/01 03:34:14;;;;;;;21.52;19.25;;;17.50;54.60;;;;;;5036950;28;20213;-75
2023/01/01 03:36:43;;;;;;;22.70;19.33;;;17.50;55.20;;;;;;5036789;28;20215;-75
2023/01/01 03:39:13;;;;;;;21.33;19.02;;;17.40;54.60;;;;;;5037146;28;20290;-75
2023/01/01 03:41:43;;;;;;;21.75;19.50;;;17.40;54.60;;;;;;5036968;28;20196;-75
2023/01/01 03:44:13;;;;;;;20.40;18.38;;;17.40;55.20;;;;;;5037326;28;20219;-75
2023/01/01 03:46:40;;;;;;;21.05;18.95;;;17.40;54.60;;;;;;5036285;28;20215;-75
2023/01/01 03:49:08;;;;;;;21.20;19.05;;;17.40;54.70;;;;;;5054264;28;20539;-75
2023/01/01 03:51:49;;;;;;;21.50;19.27;;;17.40;54.70;;;;;;5036283;28;20238;-75
2023/01/01 03:54:22;;;;;;;20.38;18.27;;;17.40;54.70;;;;;;5035989;28;20702;-76
2023/01/01 03:56:52;;;;;;;19.13;17.13;;;17.40;54.70;;;;;;5035993;28;20223;-76
2023/01/01 03:59:21;;;;;;;20.70;18.50;;;17.30;54.60;;;;;;5035969;28;20270;-75
2023/01/01 04:01:49;;;;;;;20.05;17.90;;;17.30;54.50;;;;;;5036781;28;20243;-75
2023/01/01 04:04:16;;;;;;;20.42;18.25;;;17.30;54.60;;;;;;5035628;28;20223;-75
2023/01/01 04:06:44;;;;;;;20.63;18.40;;;17.30;54.50;;;;;;5035972;28;20223;-75
2023/01/01 04:09:15;;;;;;;20.27;18.20;;;17.30;54.50;;;;;;5036061;28;20199;-75
2023/01/01 04:12:02;;;;;;;20.80;18.27;;;17.30;54.50;;;;;;5035670;28;20195;-75
2023/01/01 04:14:31;;;;;;;19.42;17.35;;;17.30;54.50;;;;;;5052338;28;20199;-75
2023/01/01 04:16:58;;;;;;;19.92;16.63;;;17.30;54.50;;;;;;5053793;28;20261;-76
2023/01/01 04:19:25;;;;;;;19.35;17.35;;;17.30;54.50;;;;;;5035747;28;20241;-75
2023/01/01 04:21:54;;;;;;;19.02;17.02;;;17.30;54.50;;;;;;5035536;28;20253;-76
2023/01/01 04:24:21;;;;;;;19.02;17.13;;;17.30;54.50;;;;;;5025415;28;20222;-79
2023/01/01 04:26:48;;;;;;;18.88;15.93;;;17.30;54.30;;;;;;5033937;28;20268;-76
2023/01/01 04:29:16;;;;;;;17.98;16.13;;;17.30;54.30;;;;;;5040488;28;20565;-78
2023/01/01 04:31:43;;;;;;;17.35;15.55;;;17.30;54.50;;;;;;5040002;28;20202;-76
2023/01/01 04:34:10;;;;;;;18.10;16.20;;;17.40;54.70;;;;;;5040148;28;20216;-76
2023/01/01 04:36:36;;;;;;;18.63;16.55;;;17.40;54.60;;;;;;5039932;28;20226;-76
2023/01/01 04:39:05;;;;;;;17.35;15.65;;;17.40;54.50;;;;;;5040045;28;20203;-76
2023/01/01 04:41:32;;;;;;;18.73;16.80;;;17.40;54.40;;;;;;5039889;28;20214;-76
2023/01/01 04:43:59;;;;;;;18.42;16.60;;;17.50;54.30;;;;;;5039981;28;20207;-76
2023/01/01 04:46:26;;;;;;;17.77;15.98;;;17.50;54.30;;;;;;5040117;28;20233;-77
2023/01/01 04:48:53;;;;;;;17.38;15.57;;;17.50;54.10;;;;;;5040979;28;20199;-77
2023/01/01 04:51:21;;;;;;;17.48;15.68;;;17.50;54.00;;;;;;5040801;28;20293;-77
2023/01/01 04:53:48;;;;;;;16.45;14.75;;;17.50;53.90;;;;;;5056860;28;20192;-77
2023/01/01 04:56:17;;;;;;;15.77;14.27;;;17.60;53.90;;;;;;5040373;28;20206;-77
2023/01/01 04:58:44;;;;;;;17.23;15.48;;;17.60;54.00;;;;;;5040759;28;20195;-77
2023/01/01 05:01:15;;;;;;;16.65;14.95;;;17.60;53.80;;;;;;5057535;28;20214;-77
2023/01/01 05:03:41;;;;;;;16.48;14.70;;;17.60;53.80;;;;;;5039988;28;20230;-77
2023/01/01 05:06:10;;;;;;;16.70;15.00;;;17.60;53.70;;;;;;5039890;28;20199;-77
2023/01/01 05:08:38;;;;;;;17.23;15.45;;;17.60;53.60;;;;;;5040617;28;20306;-77
2023/01/01 05:11:06;;;;;;;17.25;15.55;;;17.60;53.60;;;;;;5040243;28;20206;-77
2023/01/01 05:13:36;;;;;;;15.48;13.98;;;17.60;53.70;;;;;;5040259;28;20199;-77
2023/01/01 05:16:03;;;;;;;15.40;13.98;;;17.60;53.50;;;;;;5039621;28;20203;-77
2023/01/01 05:18:30;;;;;;;16.63;14.98;;;17.60;53.50;;;;;;5039519;28;20206;-77
2023/01/01 05:21:00;;;;;;;15.85;14.25;;;17.50;53.30;;;;;;5039449;28;20206;-77
2023/01/01 05:23:27;;;;;;;15.55;14.05;;;17.60;53.40;;;;;;5039166;28;20249;-77
2023/01/01 05:25:54;;;;;;;16.13;14.55;;;17.60;53.40;;;;;;5057107;28;20183;-77
2023/01/01 05:28:22;;;;;;;15.70;14.13;;;17.60;53.40;;;;;;5039297;28;20224;-77
2023/01/01 05:30:50;;;;;;;15.23;13.73;;;17.50;53.40;;;;;;5038959;28;20203;-77
2023/01/01 05:33:17;;;;;;;14.68;13.27;;;17.60;53.40;;;;;;5038675;28;20565;-76
2023/01/01 05:35:44;;;;;;;16.10;14.50;;;17.50;53.30;;;;;;5038671;28;20762;-77
2023/01/01 05:38:11;;;;;;;16.17;14.55;;;17.50;53.40;;;;;;5038671;28;20242;-76
2023/01/01 05:40:39;;;;;;;14.73;13.32;;;17.50;53.30;;;;;;5038742;28;20203;-77
2023/01/01 05:43:06;;;;;;;15.13;13.63;;;17.50;53.30;;;;;;5038388;28;20219;-77
2023/01/01 05:45:33;;;;;;;14.35;12.95;;;17.50;53.30;;;;;;5038758;28;20215;-77
2023/01/01 05:48:03;;;;;;;14.85;13.35;;;17.60;53.40;;;;;;5038436;28;20597;-77
2023/01/01 05:50:30;;;;;;;15.20;13.70;;;17.50;53.30;;;;;;5038684;28;20678;-77
2023/01/01 05:52:57;;;;;;;15.57;13.68;;;17.50;53.40;;;;;;5040478;28;20195;-77
2023/01/01 05:55:24;;;;;;;15.32;13.70;;;17.50;53.40;;;;;;5039070;28;20201;-76
2023/01/01 05:57:51;;;;;;;15.98;14.35;;;17.50;53.40;;;;;;5038260;28;20221;-76
2023/01/01 06:00:18;;;;;;;14.48;12.98;;;17.60;53.60;;;;;;5038149;28;20203;-76
2023/01/01 06:02:45;;;;;;;14.70;13.27;;;17.50;53.30;;;;;;5038300;28;20214;-76
2023/01/01 06:05:13;;;;;;;15.30;13.75;;;17.50;53.40;;;;;;5037945;28;20195;-76
2023/01/01 06:07:40;;;;;;;14.90;13.48;;;17.60;53.40;;;;;;5038001;28;20694;-76
2023/01/01 06:10:08;;;;;;;13.68;12.27;;;17.50;53.90;;;;;;5037735;28;20203;-76
2023/01/01 06:12:35;;;;;;;13.80;12.50;;;17.60;53.50;;;;;;5038159;28;20191;-76
2023/01/01 06:15:02;;;;;;;13.48;12.18;;;17.50;53.40;;;;;;5037527;28;20538;-76
2023/01/01 06:17:29;;;;;;;14.32;12.93;;;17.50;53.50;;;;;;5037567;28;20310;-77
2023/01/01 06:19:57;;;;;;;13.35;11.95;;;17.50;53.50;;;;;;5055364;28;20645;-77
2023/01/01 06:22:26;;;;;;;13.45;12.15;;;17.50;53.40;;;;;;5055655;28;20188;-77
2023/01/01 06:24:53;;;;;;;13.43;12.07;;;17.60;53.90;;;;;;5041114;28;20332;-77
2023/01/01 06:27:20;;;;;;;13.88;12.45;;;17.50;53.30;;;;;;5037840;28;20223;-77
2023/01/01 06:29:47;;;;;;;13.27;11.95;;;17.50;53.30;;;;;;5037399;28;20282;-77
2023/01/01 06:32:14;;;;;;;13.27;11.98;;;17.50;53.30;;;;;;5040084;28;20223;-77
2023/01/01 06:34:42;;;;;;;14.00;12.50;;;17.50;53.50;;;;;;5040126;28;20199;-77
2023/01/01 06:37:09;;;;;;;13.02;11.82;;;17.50;53.40;;;;;;5039468;28;20310;-77
2023/01/01 06:39:37;;;;;;;13.00;11.80;;;17.50;53.40;;;;;;5038094;28;20309;-77
2023/01/01 06:42:04;;;;;;;12.50;11.30;;;17.50;53.30;;;;;;5037158;28;20209;-77
2023/01/01 06:44:31;;;;;;;13.05;11.77;;;17.50;53.40;;;;;;5037446;28;20219;-77
2023/01/01 06:46:58;;;;;;;12.32;11.13;;;17.50;53.30;;;;;;5036535;28;20304;-77
2023/01/01 06:49:26;;;;;;;12.95;11.65;;;17.50;53.90;;;;;;5036828;28;20207;-77
2023/01/01 06:51:53;;;;;;;12.40;11.20;;;17.50;53.20;;;;;;5037237;28;20206;-77
2023/01/01 06:54:20;;;;;;;11.88;10.68;;;17.60;53.20;;;;;;5054563;28;20268;-77
2023/01/01 06:56:49;;;;;;;11.20;10.10;;;17.60;53.10;;;;;;5036733;28;20628;-76
2023/01/01 06:59:16;;;;;;;11.98;10.88;;;17.60;53.20;;;;;;5036652;28;20677;-77
2023/01/01 07:01:43;;;;;;;12.45;11.25;;;17.60;53.10;;;;;;5036864;28;20253;-77
2023/01/01 07:04:12;;;;;;;11.65;10.57;;;17.60;53.00;;;;;;5036741;28;20230;-77
2023/01/01 07:06:39;;;;;;;11.88;10.70;;;17.60;53.10;;;;;;5053298;28;20223;-77
2023/01/01 07:09:06;;;;;;;11.40;10.30;;;17.60;53.70;;;;;;5036671;28;20287;-77
2023/01/01 07:11:34;;;;;;;12.50;11.30;;;17.60;53.10;;;;;;5036826;28;20211;-77
2023/01/01 07:14:02;;;;;;;11.82;10.65;;;17.60;53.20;;;;;;5036973;28;20199;-77
2023/01/01 07:16:29;;;;;;;12.07;10.90;;;17.60;53.10;;;;;;5037238;28;20215;-77
2023/01/01 07:18:57;;;;;;;12.35;10.88;;;17.60;53.10;;;;;;5037026;28;20199;-77
2023/01/01 07:21:28;;;;;;;12.02;10.93;;;17.60;52.90;;;;;;5054826;28;20207;-77
2023/01/01 07:23:56;;;;;;;11.15;10.05;;;17.60;52.80;;;;;;5036627;28;20216;-77
2023/01/01 07:26:23;;;;;;;11.15;9.93;;;17.60;52.80;;;;;;5037511;28;20199;-77
2023/01/01 07:28:51;;;;;;;11.18;10.07;;;17.70;52.80;;;;;;5037230;28;20199;-77
2023/01/01 07:31:19;;;;;;;11.50;10.32;;;17.60;52.90;;;;;;5037654;28;20647;-77
2023/01/01 07:33:47;;;;;;;10.80;9.80;;;17.60;52.70;;;;;;5055276;28;20183;-77
2023/01/01 07:36:14;;;;;;;11.45;10.30;;;17.70;52.80;;;;;;5038814;28;20398;-77
2023/01/01 07:38:41;;;;;;;11.70;10.50;;;17.70;52.80;;;;;;5040929;28;20284;-77
2023/01/01 07:41:08;;;;;;;10.10;9.10;;;17.70;52.70;;;;;;5038086;28;20452;-77
2023/01/01 07:43:35;;;;;;;10.93;9.82;;;17.70;52.70;;;;;;5036480;28;20708;-77
2023/01/01 07:46:02;;;;;;;11.65;10.50;;;17.70;52.70;;;;;;5054508;28;20205;-77
2023/01/01 07:48:30;;;;;;;11.00;9.80;;;17.70;52.70;;;;;;5036488;28;20223;-77
2023/01/01 07:50:57;;;;;;;10.98;9.88;;;17.70;52.70;;;;;;5036432;28;20202;-77
2023/01/01 07:53:24;;;;;;;10.30;9.40;;;17.70;52.60;;;;;;5052626;28;20203;-78
2023/01/01 07:55:51;;;;;;;10.98;9.88;;;17.80;52.80;;;;;;5035833;28;20199;-78
2023/01/01 07:58:18;;;;;;;10.85;9.82;;;17.80;52.80;;;;;;5052469;28;20246;-78
2023/01/01 08:00:46;;;;;;;11.27;10.23;;;17.80;52.60;;;;;;5036127;28;20200;-78
2023/01/01 08:03:14;;;;;;;10.68;9.68;;;17.80;52.80;;;;;;5036080;28;20268;-78
2023/01/01 08:05:42;;;;;;;10.68;9.68;;;17.80;52.70;;;;;;5052377;28;20222;-78
2023/01/01 08:08:10;;;;;;;9.82;8.93;;;17.80;52.70;;;;;;5035748;28;20219;-78
2023/01/01 08:10:37;;;;;;;10.88;9.63;;;17.80;52.60;;;;;;5035526;28;20195;-78
2023/01/01 08:13:05;;;;;;;10.15;9.15;;;17.80;52.70;;;;;;5052286;28;20663;-77
2023/01/01 08:15:32;;;;;;;10.30;9.30;;;17.80;52.60;;;;;;5052267;28;20285;-77
2023/01/01 08:17:59;;;;;;;11.05;9.95;;;17.90;52.60;;;;;;5035743;28;20215;-77
2023/01/01 08:20:27;;;;;;;9.95;9.13;;;17.90;52.80;;;;;;5052036;28;20195;-78
2023/01/01 08:22:55;;;;;;;9.80;8.90;;;17.90;52.60;;;;;;5035978;28;20561;-77
2023/01/01 08:25:22;;;;;;;10.25;9.25;;;17.90;52.60;;;;;;5035639;28;20580;-77
2023/01/01 08:27:49;;;;;;;10.27;9.18;;;17.90;52.50;;;;;;5036367;28;20218;-77
2023/01/01 08:30:16;;;;;;;9.73;8.82;;;17.90;52.60;;;;;;5052924;28;20258;-78
2023/01/01 08:32:43;;;;;;;9.38;8.35;;;17.90;52.90;;;;;;5035310;28;20199;-79
2023/01/01 08:35:10;;;;;;;8.30;7.50;;;17.90;52.30;;;;;;5035309;28;20208;-79
2023/01/01 08:37:38;;;;;;;9.48;8.57;;;18.00;52.40;;;;;;5035735;28;20219;-79
2023/01/01 08:40:09;;;;;;;8.48;7.68;;;18.00;52.30;;;;;;5035557;28;20237;-79
2023/01/01 08:42:36;;;;;;;8.90;8.10;;;18.00;52.30;;;;;;5036335;28;20222;-79
2023/01/01 08:45:04;;;;;;;9.23;8.32;;;18.00;52.60;;;;;;5053201;28;20226;-79
2023/01/01 08:47:30;;;;;;;9.07;8.10;;;18.00;52.80;;;;;;5054866;28;20306;-77
2023/01/01 08:49:58;;;;;;;9.25;8.32;;;18.10;53.00;;;;;;5051688;28;20199;-77
2023/01/01 08:52:24;;;;;;;8.63;7.80;;;18.10;54.50;;;;;;5051537;28;20211;-77
2023/01/01 08:54:51;;;;;;;9.00;7.63;;;18.10;53.50;;;;;;5035263;28;20286;-76
2023/01/01 08:57:21;;;;;;;9.52;7.85;;;18.20;53.40;;;;;;5034955;28;20250;-77
2023/01/01 08:59:48;;;;;;;8.65;7.85;;;18.20;53.10;;;;;;5035116;28;20203;-77
2023/01/01 09:02:15;;;;;;;8.98;8.13;;;18.20;53.20;;;;;;5035773;28;20533;-76
2023/01/01 09:04:42;;;;;;;9.68;7.88;;;18.20;53.30;;;;;;5034977;28;20218;-77
2023/01/01 09:07:09;;;;;;;8.75;7.85;;;18.20;53.30;;;;;;5051405;28;20220;-76
2023/01/01 09:09:36;;;;;;;8.23;7.53;;;18.30;53.30;;;;;;5053654;28;20187;-76
2023/01/01 09:12:05;;;;;;;9.00;7.95;;;18.30;53.30;;;;;;5038540;28;20257;-76
2023/01/01 09:14:34;;;;;;;8.88;7.60;;;18.30;53.20;;;;;;5038785;28;20562;-77
2023/01/01 09:17:02;;;;;;;8.30;7.53;;;18.30;53.20;;;;;;5038585;28;20219;-76
2023/01/01 09:19:29;;;;;;;9.15;8.25;;;18.30;53.20;;;;;;5038789;28;20199;-77
2023/01/01 09:21:56;;;;;;;7.93;7.13;;;18.30;53.30;;;;;;5055387;28;20235;-77
2023/01/01 09:24:23;;;;;;;9.25;8.23;;;18.40;53.30;;;;;;5040270;28;20226;-78
2023/01/01 09:26:50;;;;;;;7.90;7.10;;;18.40;53.30;;;;;;5058683;28;20230;-78
2023/01/01 09:29:19;;;;;;;7.90;7.10;;;18.40;53.60;;;;;;5055916;28;20211;-78
2023/01/01 09:31:47;;;;;;;7.70;6.90;;;18.40;53.30;;;;;;5038965;28;20245;-77
2023/01/01 09:34:15;;;;;;;7.93;7.13;;;18.40;53.30;;;;;;5038463;28;20192;-78
2023/01/01 09:36:42;;;;;;;8.68;7.35;;;18.40;53.30;;;;;;5038555;28;20226;-77
2023/01/01 09:39:10;;;;;;;8.68;7.13;;;18.50;53.40;;;;;;5038541;28;20195;-78
2023/01/01 09:41:50;;;;;;;7.60;6.93;;;18.50;53.40;;;;;;5056279;28;20195;-78
2023/01/01 09:44:24;;;;;;;6.82;6.13;;;18.40;53.30;;;;;;5038606;28;20239;-76
2023/01/01 09:46:53;;;;;;;7.93;7.07;;;18.50;53.40;;;;;;5055153;28;20215;-77
2023/01/01 09:49:28;;;;;;;8.07;7.28;;;18.50;53.80;;;;;;5038268;28;20207;-77
2023/01/01 09:51:59;;;;;;;7.10;6.40;;;18.50;53.40;;;;;;5038847;28;20191;-77
2023/01/01 09:54:28;;;;;;;6.90;6.22;;;18.60;53.50;;;;;;5037987;28;20322;-77
2023/01/01 09:56:57;;;;;;;10.35;6.82;;;18.60;53.70;;;;;;5037367;28;20246;-77
2023/01/01 09:59:23;;;;;;;7.15;6.45;;;18.60;53.50;;;;;;5039867;28;20191;-77
2023/01/01 10:01:56;;;;;;;8.77;6.43;;;18.70;53.50;;;;;;5058215;28;20558;-77
2023/01/01 10:04:39;;;;;;;6.88;6.10;;;18.70;53.50;;;;;;5039785;28;20227;-77
2023/01/01 10:07:15;;;;;;;6.88;6.28;;;18.70;53.30;;;;;;5039536;28;20701;-77
2023/01/01 10:09:47;;;;;;;7.22;6.53;;;18.70;53.20;;;;;;5038940;28;20682;-77
2023/01/01 10:12:19;;;;;;;6.78;6.07;;;18.80;53.20;;;;;;5055138;28;20202;-77
2023/01/01 10:14:48;;;;;;;6.82;6.22;;;18.80;53.10;;;;;;5038610;28;20222;-77
2023/01/01 10:17:18;;;;;;;7.07;6.38;;;18.80;53.00;;;;;;5055398;28;20211;-77
2023/01/01 10:19:49;;;;;;;7.35;6.65;;;18.80;52.90;;;;;;5055401;28;20187;-77
2023/01/01 10:22:18;;;;;;;6.90;6.30;;;18.80;52.90;;;;;;5037283;28;20570;-77
2023/01/01 10:24:48;;;;;;;6.93;6.22;;;18.90;53.00;;;;;;5038174;28;20224;-77
2023/01/01 10:27:24;;;;;;;6.82;6.00;;;18.90;52.90;;;;;;5038360;28;20299;-77
2023/01/01 10:29:55;;;;;;;6.57;5.97;;;18.90;52.90;;;;;;5056037;28;20171;-77
2023/01/01 10:32:27;;;;;;;7.00;6.28;;;18.80;52.80;;;;;;5038373;28;20195;-77
2023/01/01 10:34:54;;;;;;;6.30;5.57;;;18.90;52.90;;;;;;5040004;28;20699;-77
2023/01/01 10:37:21;;;;;;;6.28;5.68;;;18.90;53.00;;;;;;5039202;28;20246;-77
2023/01/01 10:39:48;;;;;;;6.85;6.15;;;18.90;52.90;;;;;;5055113;28;20195;-77
2023/01/01 10:42:15;;;;;;;6.47;5.85;;;19.00;52.90;;;;;;5040134;28;20209;-77
2023/01/01 10:44:43;;;;;;;6.03;5.53;;;19.00;52.90;;;;;;5055601;28;20695;-78
2023/01/01 10:47:25;;;;;;;6.85;6.15;;;19.00;52.90;;;;;;5054869;28;20215;-77
2023/01/01 10:49:56;;;;;;;6.32;5.65;;;19.00;53.00;;;;;;5055406;28;20203;-78
2023/01/01 10:52:27;;;;;;;6.30;5.70;;;19.00;53.60;;;;;;5054632;28;20212;-78
2023/01/01 10:54:54;;;;;;;6.20;5.63;;;19.00;52.90;;;;;;5037638;28;20656;-78
2023/01/01 10:57:27;;;;;;;7.05;6.35;;;19.00;52.90;;;;;;5055522;28;20220;-78
2023/01/01 11:00:20;;;;;;;6.35;5.75;;;19.00;52.90;;;;;;5037699;28;20195;-78
2023/01/01 11:02:50;;;;;;;6.50;5.90;;;19.10;53.00;;;;;;5033091;28;20206;-78
2023/01/01 11:05:18;;;;;;;5.80;5.30;;;19.10;52.90;;;;;;5037235;28;20684;-77
2023/01/01 11:07:45;;;;;;;6.50;5.85;;;19.10;53.50;;;;;;5055118;28;20211;-78
2023/01/01 11:10:16;;;;;;;6.03;5.28;;;19.20;52.80;;;;;;5038971;28;20302;-78
2023/01/01 11:12:44;;;;;;;6.32;5.72;;;19.20;52.70;;;;;;5037561;28;20191;-78
2023/01/01 11:15:21;;;;;;;6.43;5.82;;;19.20;53.30;;;;;;5037488;28;20286;-78
2023/01/01 11:17:49;;;;;;;6.97;6.28;;;19.20;52.50;;;;;;5054194;28;20225;-78
2023/01/01 11:20:18;;;;;;;7.25;6.55;;;19.30;52.60;;;;;;5037353;28;20671;-78
2023/01/01 11:22:47;;;;;;;8.40;6.65;;;19.30;52.50;;;;;;5053721;28;20195;-78
2023/01/01 11:25:22;;;;;;;7.32;6.28;;;19.30;52.40;;;;;;5053728;28;20207;-78
2023/01/01 11:27:49;;;;;;;6.93;6.22;;;19.30;52.30;;;;;;5036887;28;20239;-78
2023/01/01 11:30:24;;;;;;;6.15;5.65;;;19.40;52.40;;;;;;5054754;28;20198;-78
2023/01/01 11:32:54;;;;;;;6.05;5.53;;;19.40;52.20;;;;;;5037305;28;20237;-78
2023/01/01 11:35:26;;;;;;;6.47;5.88;;;19.40;52.20;;;;;;5042125;28;20180;-78
2023/01/01 11:37:53;;;;;;;6.47;5.88;;;19.40;52.10;;;;;;5064316;28;20212;-78
2023/01/01 11:40:22;;;;;;;6.30;5.72;;;19.40;52.10;;;;;;5049981;28;20571;-78
2023/01/01 11:42:50;;;;;;;6.20;5.60;;;19.40;52.00;;;;;;5037357;28;20191;-78
2023/01/01 11:45:19;;;;;;;5.78;5.28;;;19.40;52.00;;;;;;5036805;28;20230;-78
2023/01/01 11:47:51;;;;;;;6.07;5.53;;;19.40;52.10;;;;;;5054188;28;20679;-80
2023/01/01 11:50:25;;;;;;;6.03;5.53;;;19.40;52.00;;;;;;5054350;28;20218;-80
2023/01/01 11:52:53;;;;;;;6.07;5.20;;;19.40;52.00;;;;;;5037818;28;20187;-81
2023/01/01 11:55:26;;;;;;;7.18;6.47;;;19.40;52.00;;;;;;5054196;28;20293;-81
2023/01/01 11:57:59;;;;;;;6.75;6.15;;;19.50;52.00;;;;;;5037630;28;20250;-80
2023/01/01 12:00:26;;;;;;;6.25;5.70;;;19.50;51.80;;;;;;5038249;28;20612;-81
2023/01/01 12:02:56;;;;;;;6.03;5.53;;;19.50;51.70;;;;;;5039109;28;20286;-80
2023/01/01 12:05:25;;;;;;;5.95;5.35;;;19.50;51.70;;;;;;5040005;28;20596;-81
2023/01/01 12:07:52;;;;;;;6.13;5.53;;;19.60;51.70;;;;;;5056119;28;20219;-80
2023/01/01 12:10:22;;;;;;;5.50;5.00;;;19.60;51.70;;;;;;5057022;28;20187;-80
2023/01/01 12:12:51;;;;;;;5.88;5.32;;;19.60;51.70;;;;;;5057080;28;20573;-80
2023/01/01 12:15:20;;;;;;;6.25;5.65;;;19.60;51.60;;;;;;5058547;28;20183;-80
2023/01/01 12:17:49;;;;;;;8.07;6.32;;;19.60;51.50;;;;;;5057792;28;20211;-80
2023/01/01 12:20:20;;;;;;;8.10;7.30;;;19.70;51.60;;;;;;5042817;28;20201;-80
2023/01/01 12:22:48;;;;;;;12.25;10.95;;;19.70;51.50;;;;;;5044355;28;20198;-80
2023/01/01 12:25:17;;;;;;;9.07;7.93;;;19.70;51.50;;;;;;5060177;28;20222;-80
2023/01/01 12:27:54;;;;;;;7.55;6.53;;;19.70;51.60;;;;;;5039480;28;20222;-80
2023/01/01 12:30:22;;;;;;;5.80;5.30;;;19.80;51.70;;;;;;5056097;28;20191;-80
2023/01/01 12:33:06;;;;;;;6.57;5.97;;;19.80;51.50;;;;;;5039519;28;20215;-80
2023/01/01 12:35:44;;;;;;;5.78;5.20;;;19.80;51.50;;;;;;5040022;28;20639;-80
2023/01/01 12:38:18;;;;;;;5.90;5.40;;;19.80;51.50;;;;;;5055789;28;20219;-80
2023/01/01 12:40:48;;;;;;;5.78;5.28;;;19.80;51.50;;;;;;5037905;28;20192;-80
2023/01/01 12:43:18;;;;;;;6.38;5.43;;;19.90;51.60;;;;;;5053975;28;20191;-80
2023/01/01 12:46:07;;;;;;;5.60;5.10;;;19.90;51.60;;;;;;5040841;28;20282;-80